Time;durP1;ratioP1;P1;durP2;ratioP2;P2;SDS_P1;SDS_P2;PMS_P1;PMS_P2;Temp;Humidity;BMP_temperature;BMP_pressure;BME280_temperature;BME280_humidity;BME280_pressure;Samples;Min_cycle;Max_cycle;Signal;HPM_P1;HPM_P2
2023/08/19 00:00:06;;;;;;;6.80;4.30;;;;;;;21.52;65.17;97151.91;5070124;28;20206;-72
2023/08/19 00:02:41;;;;;;;6.07;4.20;;;;;;;21.30;64.61;97104.72;5070214;28;20408;-72
2023/08/19 00:05:09;;;;;;;5.97;4.37;;;;;;;21.44;63.83;97138.59;5070199;28;20259;-73
2023/08/19 00:07:37;;;;;;;6.30;4.00;;;;;;;21.39;64.67;97144.25;5068819;28;20193;-73
2023/08/19 00:10:05;;;;;;;5.63;4.57;;;;;;;21.45;64.28;97148.16;5069811;28;20191;-73
2023/08/19 00:12:32;;;;;;;5.77;4.63;;;;;;;21.22;65.17;97146.69;5070846;28;20209;-73
2023/08/19 00:14:59;;;;;;;9.13;4.43;;;;;;;21.08;65.74;97146.06;5080247;28;20186;-84
2023/08/19 00:17:26;;;;;;;8.77;5.60;;;;;;;21.32;65.60;97139.66;5083878;28;20197;-84
2023/08/19 00:19:53;;;;;;;8.13;5.43;;;;;;;21.22;65.97;97131.72;5085968;28;20190;-83
2023/08/19 00:22:20;;;;;;;7.97;4.80;;;;;;;21.31;65.74;97119.56;5079893;28;20252;-79
2023/08/19 00:24:47;;;;;;;5.27;4.77;;;;;;;21.52;64.99;97130.84;5076299;28;20186;-83
2023/08/19 00:27:14;;;;;;;6.67;5.17;;;;;;;21.57;64.54;97111.03;5082721;28;20175;-80
2023/08/19 00:29:42;;;;;;;7.03;4.63;;;;;;;21.87;63.74;97131.22;5088787;28;20199;-75
2023/08/19 00:32:09;;;;;;;5.97;4.83;;;;;;;22.04;62.79;97106.78;5082269;28;20196;-79
2023/08/19 00:34:40;;;;;;;6.20;4.87;;;;;;;22.34;61.56;97117.19;5079621;28;20178;-82
2023/08/19 00:37:07;;;;;;;8.53;5.13;;;;;;;22.45;61.93;97126.75;5070362;28;20319;-72
2023/08/19 00:39:34;;;;;;;4.83;4.20;;;;;;;22.54;61.34;97132.03;5071110;28;20191;-74
2023/08/19 00:42:01;;;;;;;4.93;4.20;;;;;;;22.12;61.03;97080.56;5069173;28;20227;-72
2023/08/19 00:44:30;;;;;;;7.50;4.13;;;;;;;22.37;61.45;97138.03;5068440;28;20712;-72
2023/08/19 00:46:58;;;;;;;6.80;4.93;;;;;;;22.24;61.68;97118.16;5068483;28;20200;-73
2023/08/19 00:49:25;;;;;;;7.23;4.90;;;;;;;22.30;62.29;97129.00;5067698;28;20280;-73
2023/08/19 00:51:52;;;;;;;6.80;4.63;;;;;;;22.33;62.62;97131.38;5069399;28;20215;-73
2023/08/19 00:54:20;;;;;;;7.70;5.60;;;;;;;22.08;63.71;97139.84;5069444;28;20279;-76
2023/08/19 00:56:47;;;;;;;9.50;5.77;;;;;;;22.04;64.07;97125.25;5067622;28;20691;-73
2023/08/19 00:59:14;;;;;;;9.20;6.00;;;;;;;22.20;63.91;97132.59;5067305;28;20200;-72
2023/08/19 01:01:41;;;;;;;8.83;6.00;;;;;;;22.18;63.92;97129.28;5050879;28;20319;-73
2023/08/19 01:04:08;;;;;;;7.33;5.60;;;;;;;22.12;64.18;97140.38;5068904;28;20192;-80
2023/08/19 01:07:02;;;;;;;7.47;5.87;;;;;;;22.15;64.20;97146.25;5069129;28;20816;-74
2023/08/19 01:09:52;;;;;;;6.23;5.63;;;;;;;22.07;64.31;97148.72;5067409;28;20681;-73
2023/08/19 01:12:42;;;;;;;7.73;5.53;;;;;;;21.98;64.93;97151.34;5068820;28;20273;-73
2023/08/19 01:15:26;;;;;;;5.93;5.27;;;;;;;22.08;64.74;97150.38;5067019;28;20210;-73
2023/08/19 01:17:55;;;;;;;7.70;5.47;;;;;;;22.05;64.28;97140.09;5050737;28;20256;-75
2023/08/19 01:20:29;;;;;;;6.77;5.30;;;;;;;21.88;64.94;97151.34;5069462;28;20190;-74
2023/08/19 01:23:05;;;;;;;5.23;4.70;;;;;;;22.09;64.56;97169.69;5068195;28;20601;-75
2023/08/19 01:25:32;;;;;;;7.33;5.23;;;;;;;21.89;65.26;97182.00;5068652;28;20240;-76
2023/08/19 01:28:03;;;;;;;7.00;5.00;;;;;;;21.93;65.34;97178.13;5069914;28;20763;-75
2023/08/19 01:30:31;;;;;;;9.77;5.10;;;;;;;21.93;66.26;97191.31;5070196;28;20273;-73
2023/08/19 01:32:58;;;;;;;6.00;5.23;;;;;;;22.03;66.01;97173.69;5068885;28;20487;-75
2023/08/19 01:35:25;;;;;;;6.27;5.20;;;;;;;21.81;66.00;97200.28;5077988;28;20211;-81
2023/08/19 01:37:59;;;;;;;6.50;4.90;;;;;;;21.35;65.65;97200.00;5081871;28;20222;-85
2023/08/19 01:40:27;;;;;;;6.63;5.33;;;;;;;20.92;66.58;97185.19;5067762;28;20663;-74
2023/08/19 01:42:55;;;;;;;7.27;5.80;;;;;;;20.50;68.32;97175.66;5035536;28;20230;-73
2023/08/19 01:45:22;;;;;;;6.53;5.80;;;;;;;19.81;70.95;97168.22;5067655;28;20604;-74
2023/08/19 01:47:56;;;;;;;6.33;5.17;;;;;;;18.71;73.30;97043.16;5050040;28;20683;-74
2023/08/19 01:50:23;;;;;;;6.43;5.70;;;;;;;19.53;73.34;97153.84;5067977;28;20762;-73
2023/08/19 01:52:50;;;;;;;7.13;6.43;;;;;;;19.75;72.21;97134.53;5066147;28;20185;-73
2023/08/19 01:55:17;;;;;;;12.23;6.97;;;;;;;19.79;72.06;97114.94;5066191;28;20189;-73
2023/08/19 01:57:44;;;;;;;9.17;6.47;;;;;;;19.98;70.31;97099.34;5066193;28;20208;-73
2023/08/19 02:00:12;;;;;;;7.10;5.80;;;;;;;20.52;68.47;97115.00;5066731;28;20185;-73
2023/08/19 02:02:42;;;;;;;7.47;5.67;;;;;;;20.85;66.73;97105.06;5067366;28;20577;-79
2023/08/19 02:05:13;;;;;;;7.57;5.37;;;;;;;21.04;65.05;97109.63;5067992;28;20196;-73
2023/08/19 02:07:41;;;;;;;8.03;5.80;;;;;;;21.06;65.13;97111.13;5066174;28;20261;-76
2023/08/19 02:10:08;;;;;;;7.67;5.23;;;;;;;21.43;63.96;97127.19;5066588;28;20649;-73
2023/08/19 02:12:35;;;;;;;6.10;5.17;;;;;;;21.30;63.10;97099.44;5068346;28;20189;-78
2023/08/19 02:15:03;;;;;;;6.70;5.17;;;;;;;21.34;64.85;97101.69;5069389;28;20194;-84
2023/08/19 02:17:50;;;;;;;5.60;5.03;;;;;;;21.47;63.61;97122.50;5053545;28;20229;-76
2023/08/19 02:20:18;;;;;;;8.77;5.10;;;;;;;21.62;63.70;97143.06;5049529;28;20694;-74
2023/08/19 02:22:45;;;;;;;4.80;4.30;;;;;;;21.96;62.04;97151.50;5065882;28;20230;-75
2023/08/19 02:25:14;;;;;;;4.90;4.37;;;;;;;22.23;61.35;97154.28;5066141;28;20185;-73
2023/08/19 02:27:42;;;;;;;7.93;4.83;;;;;;;22.22;60.66;97139.41;5065846;28;20186;-74
2023/08/19 02:30:10;;;;;;;5.70;4.60;;;;;;;21.90;61.70;97124.84;5067660;28;20262;-73
2023/08/19 02:32:40;;;;;;;6.63;4.60;;;;;;;22.07;63.41;97127.59;5066907;28;20195;-73
2023/08/19 02:35:10;;;;;;;7.90;4.97;;;;;;;21.93;62.83;97133.28;5066412;28;20192;-76
2023/08/19 02:37:37;;;;;;;6.43;5.30;;;;;;;21.91;62.26;97132.59;5066672;28;20245;-74
2023/08/19 02:40:06;;;;;;;6.40;4.70;;;;;;;21.43;64.88;97114.03;5067471;28;20257;-74
2023/08/19 02:42:33;;;;;;;5.33;3.83;;;;;;;20.95;64.96;97063.81;5067419;28;20666;-75
2023/08/19 02:45:00;;;;;;;5.77;3.90;;;;;;;21.13;64.03;97026.31;5067033;28;20186;-74
2023/08/19 02:47:28;;;;;;;5.13;3.87;;;;;;;21.67;62.82;97071.50;5065833;28;20207;-73
2023/08/19 02:49:56;;;;;;;7.57;4.77;;;;;;;22.01;63.30;97080.69;5065262;28;20195;-73
2023/08/19 02:52:23;;;;;;;7.60;4.20;;;;;;;22.10;63.46;97064.03;5067594;28;20195;-74
2023/08/19 02:54:50;;;;;;;11.27;4.60;;;;;;;21.66;63.18;97064.53;5067102;28;20250;-75
2023/08/19 02:57:17;;;;;;;6.87;4.10;;;;;;;21.28;63.28;97064.50;5067844;28;20190;-75
2023/08/19 02:59:44;;;;;;;5.67;4.47;;;;;;;21.28;63.64;97046.06;5065924;28;20199;-75
2023/08/19 03:02:11;;;;;;;6.97;4.20;;;;;;;21.55;63.38;97068.16;5067577;28;20201;-77
2023/08/19 03:04:38;;;;;;;10.90;5.20;;;;;;;22.03;62.20;97068.19;5065690;28;20586;-74
2023/08/19 03:07:05;;;;;;;14.40;5.57;;;;;;;22.20;62.04;97077.19;5066676;28;20185;-75
2023/08/19 03:09:32;;;;;;;6.93;4.60;;;;;;;22.12;62.01;97077.91;5068062;28;20247;-75
2023/08/19 03:11:59;;;;;;;4.90;3.60;;;;;;;22.29;61.56;97095.69;5065561;28;20612;-74
2023/08/19 03:14:26;;;;;;;8.83;4.77;;;;;;;22.37;61.43;97105.53;5071732;28;20199;-82
2023/08/19 03:16:54;;;;;;;5.03;3.83;;;;;;;22.27;61.56;97129.28;5073231;28;20259;-76
2023/08/19 03:19:21;;;;;;;6.00;4.33;;;;;;;22.34;61.25;97121.66;5072148;28;20209;-83
2023/08/19 03:21:48;;;;;;;5.73;3.97;;;;;;;22.52;60.81;97123.41;5073281;28;20245;-81
2023/08/19 03:24:15;;;;;;;5.77;4.47;;;;;;;22.44;60.41;97131.19;5075080;28;20196;-79
2023/08/19 03:26:42;;;;;;;7.43;4.20;;;;;;;22.51;60.13;97134.94;5055179;28;20216;-74
2023/08/19 03:29:09;;;;;;;4.90;4.50;;;;;;;22.35;60.41;97113.59;5071260;28;20195;-74
2023/08/19 03:31:36;;;;;;;7.53;4.33;;;;;;;22.35;61.41;97131.22;5071282;28;20264;-76
2023/08/19 03:34:03;;;;;;;7.13;4.80;;;;;;;22.31;60.91;97117.47;5069560;28;20192;-75
2023/08/19 03:36:31;;;;;;;7.80;5.47;;;;;;;22.07;61.54;97124.97;5069086;28;20220;-74
2023/08/19 03:38:58;;;;;;;5.63;4.87;;;;;;;21.58;63.91;97138.19;5069419;28;20197;-73
2023/08/19 03:41:25;;;;;;;7.33;4.63;;;;;;;21.01;65.55;97123.84;5068757;28;20215;-74
2023/08/19 03:43:53;;;;;;;8.23;5.00;;;;;;;20.75;66.66;97111.25;5069471;28;20194;-74
2023/08/19 03:46:20;;;;;;;6.83;5.23;;;;;;;20.75;66.47;97090.19;5069993;28;20837;-75
2023/08/19 03:48:47;;;;;;;6.27;5.20;;;;;;;20.76;66.99;97115.53;5070652;28;20193;-74
2023/08/19 03:51:14;;;;;;;5.20;4.70;;;;;;;20.75;67.55;97114.69;5069895;28;20704;-73
2023/08/19 03:53:41;;;;;;;8.63;4.90;;;;;;;20.97;66.43;97113.72;5069833;28;20194;-73
2023/08/19 03:56:08;;;;;;;6.90;5.13;;;;;;;21.12;65.60;97101.06;5068372;28;20193;-72
2023/08/19 03:58:35;;;;;;;11.57;6.47;;;;;;;21.08;66.09;97102.28;5068351;28;20190;-73
2023/08/19 04:01:04;;;;;;;7.13;4.63;;;;;;;21.30;65.69;97110.81;5068762;28;20213;-73
2023/08/19 04:03:33;;;;;;;8.63;5.30;;;;;;;21.53;65.19;97111.44;5068326;28;20209;-79
2023/08/19 04:06:00;;;;;;;5.87;5.27;;;;;;;21.52;64.86;97086.03;5069904;28;20584;-73
2023/08/19 04:08:27;;;;;;;5.63;4.93;;;;;;;21.54;64.66;97111.28;5069310;28;20673;-75
2023/08/19 04:10:55;;;;;;;8.70;5.53;;;;;;;21.72;64.49;97132.56;5051623;28;20235;-74
2023/08/19 04:13:22;;;;;;;7.30;5.40;;;;;;;21.61;63.97;97116.84;5069358;28;20599;-74
2023/08/19 04:15:49;;;;;;;7.00;5.13;;;;;;;22.03;62.41;97149.16;5068240;28;20699;-73
2023/08/19 04:18:16;;;;;;;7.27;5.20;;;;;;;22.14;61.87;97133.16;5068390;28;20195;-74
2023/08/19 04:20:43;;;;;;;7.20;5.40;;;;;;;22.20;60.84;97143.16;5051383;28;20196;-74
2023/08/19 04:23:12;;;;;;;6.23;5.60;;;;;;;22.39;60.65;97148.44;5070324;28;20788;-74
2023/08/19 04:25:39;;;;;;;12.40;5.60;;;;;;;22.43;59.53;97155.94;5067809;28;20552;-74
2023/08/19 04:28:06;;;;;;;7.50;5.50;;;;;;;22.57;58.99;97130.91;5069490;28;20200;-72
2023/08/19 04:30:33;;;;;;;7.17;5.30;;;;;;;22.64;58.25;97132.88;5069315;28;20282;-74
2023/08/19 04:33:01;;;;;;;6.20;5.20;;;;;;;23.03;57.64;97154.75;5068529;28;20222;-74
2023/08/19 04:35:29;;;;;;;6.77;4.90;;;;;;;23.26;57.13;97160.50;5069839;28;20279;-73
2023/08/19 04:37:56;;;;;;;12.90;6.27;;;;;;;23.21;57.03;97152.16;5050941;28;20229;-77
2023/08/19 04:40:23;;;;;;;8.07;6.03;;;;;;;23.30;57.05;97146.03;5069244;28;20186;-79
2023/08/19 04:42:50;;;;;;;9.63;5.43;;;;;;;23.15;57.41;97134.25;5065655;28;20209;-76
2023/08/19 04:45:20;;;;;;;8.03;5.77;;;;;;;23.02;58.14;97141.69;5084663;28;20241;-75
2023/08/19 04:47:48;;;;;;;8.03;5.30;;;;;;;22.97;58.41;97139.47;5053416;28;20196;-75
2023/08/19 04:50:16;;;;;;;6.10;5.27;;;;;;;22.30;60.20;97144.00;5068670;28;20185;-86
2023/08/19 04:52:44;;;;;;;8.60;5.70;;;;;;;22.20;60.91;97146.63;5052048;28;20195;-87
2023/08/19 04:55:11;;;;;;;8.73;5.63;;;;;;;21.91;62.03;97150.25;5068958;28;20216;-74
2023/08/19 04:57:38;;;;;;;6.83;5.73;;;;;;;22.05;61.55;97149.84;5068113;28;20645;-79
2023/08/19 05:00:08;;;;;;;7.77;5.40;;;;;;;22.60;60.19;97155.28;5067617;28;20216;-83
2023/08/19 05:02:35;;;;;;;7.00;5.40;;;;;;;22.98;58.46;97156.16;5067689;28;20232;-76
2023/08/19 05:05:03;;;;;;;7.83;6.00;;;;;;;22.63;59.19;97152.34;5068819;28;20192;-77
2023/08/19 05:07:30;;;;;;;6.13;5.53;;;;;;;22.24;60.41;97155.09;5067754;28;20196;-83
2023/08/19 05:09:58;;;;;;;7.00;6.20;;;;;;;22.19;61.42;97145.00;5067500;28;20271;-86
2023/08/19 05:12:25;;;;;;;7.27;5.77;;;;;;;22.42;60.60;97135.78;5066902;28;20239;-81
2023/08/19 05:14:52;;;;;;;5.60;5.10;;;;;;;22.64;59.37;97121.50;5067912;28;20221;-83
2023/08/19 05:17:19;;;;;;;8.57;5.37;;;;;;;22.85;58.94;97137.97;5071264;28;20833;-79
2023/08/19 05:19:47;;;;;;;8.50;5.63;;;;;;;22.40;58.16;97010.25;5055739;28;20198;-74
2023/08/19 05:22:13;;;;;;;10.73;5.40;;;;;;;23.33;57.94;97128.09;5071152;28;20223;-84
2023/08/19 05:24:41;;;;;;;8.47;5.63;;;;;;;23.25;57.94;97127.09;5068761;28;20736;-84
2023/08/19 05:27:09;;;;;;;8.33;6.27;;;;;;;23.58;58.12;97123.91;5067153;28;20213;-84
2023/08/19 05:29:36;;;;;;;11.67;6.17;;;;;;;23.74;56.83;97118.00;5068378;28;20195;-79
2023/08/19 05:32:04;;;;;;;10.47;6.00;;;;;;;23.72;56.92;97136.63;5068889;28;20287;-80
2023/08/19 05:34:33;;;;;;;7.87;6.27;;;;;;;23.56;57.80;97133.81;5068965;28;20606;-76
2023/08/19 05:37:04;;;;;;;8.83;6.03;;;;;;;23.79;56.19;97128.94;5068118;28;20236;-83
2023/08/19 05:39:31;;;;;;;9.63;6.93;;;;;;;24.06;55.74;97128.91;5069653;28;20215;-82
2023/08/19 05:41:58;;;;;;;7.70;5.90;;;;;;;24.07;56.19;97094.34;5071370;28;20221;-78
2023/08/19 05:44:25;;;;;;;9.50;6.33;;;;;;;23.95;55.10;97077.03;5068436;28;20220;-74
2023/08/19 05:46:53;;;;;;;6.80;6.10;;;;;;;24.54;54.39;97128.50;5067977;28;20293;-78
2023/08/19 05:49:20;;;;;;;8.80;5.90;;;;;;;24.46;54.35;97110.72;5070071;28;20249;-78
2023/08/19 05:51:47;;;;;;;12.43;6.37;;;;;;;24.65;54.01;97128.25;5068159;28;20198;-77
2023/08/19 05:54:14;;;;;;;9.00;7.03;;;;;;;24.61;53.94;97129.53;5067693;28;20263;-77
2023/08/19 05:56:41;;;;;;;8.47;7.03;;;;;;;25.12;53.12;97132.25;5066232;28;20185;-74
2023/08/19 05:59:08;;;;;;;9.67;7.37;;;;;;;25.21;51.11;97131.28;5068109;28;20191;-78
2023/08/19 06:01:35;;;;;;;7.23;6.53;;;;;;;25.20;51.83;97111.06;5065328;28;20205;-77
2023/08/19 06:04:03;;;;;;;9.83;6.37;;;;;;;25.15;51.80;97086.00;5054816;28;20233;-74
2023/08/19 06:06:30;;;;;;;9.70;5.53;;;;;;;25.60;51.50;97132.47;5029982;28;20196;-78
2023/08/19 06:08:57;;;;;;;12.60;5.27;;;;;;;25.70;51.24;97141.13;5046298;28;20207;-80
2023/08/19 06:11:24;;;;;;;6.10;5.43;;;;;;;25.70;52.50;97143.78;5047759;28;20716;-77
2023/08/19 06:13:52;;;;;;;7.50;4.83;;;;;;;25.90;51.29;97130.25;5046309;28;20203;-83
2023/08/19 06:16:19;;;;;;;4.67;4.17;;;;;;;25.92;51.20;97144.19;5046156;28;20204;-80
2023/08/19 06:18:46;;;;;;;7.17;5.53;;;;;;;25.99;51.71;97148.66;5059277;28;20203;-77
2023/08/19 06:21:14;;;;;;;6.97;5.27;;;;;;;25.72;51.75;97139.13;5063144;28;20678;-76
2023/08/19 06:23:41;;;;;;;7.77;4.40;;;;;;;25.68;51.75;97127.19;5067853;28;20219;-83
2023/08/19 06:26:08;;;;;;;8.63;5.50;;;;;;;25.72;51.40;97154.22;5067888;28;20200;-78
2023/08/19 06:28:35;;;;;;;6.23;4.30;;;;;;;25.88;50.96;97167.56;5068081;28;20192;-75
2023/08/19 06:31:02;;;;;;;5.37;3.60;;;;;;;26.04;49.77;97159.63;5065485;28;20208;-82
2023/08/19 06:33:31;;;;;;;7.20;4.83;;;;;;;25.95;49.13;97167.72;5066488;28;20204;-83
2023/08/19 06:36:00;;;;;;;8.23;3.90;;;;;;;25.98;48.89;97176.22;5065360;28;20224;-77
2023/08/19 06:38:29;;;;;;;6.00;4.17;;;;;;;26.14;48.63;97173.63;5065449;28;20283;-77
2023/08/19 06:41:10;;;;;;;5.10;3.40;;;;;;;26.12;49.58;97162.34;5066752;28;20208;-82
2023/08/19 06:43:39;;;;;;;7.17;4.83;;;;;;;26.46;48.58;97170.19;5066177;28;20240;-78
2023/08/19 06:46:08;;;;;;;7.07;4.43;;;;;;;26.68;47.62;97174.00;5067126;28;20904;-75
2023/08/19 06:48:37;;;;;;;6.33;3.83;;;;;;;26.64;47.26;97149.59;5048360;28;20215;-85
2023/08/19 06:51:05;;;;;;;5.03;3.60;;;;;;;26.80;46.63;97146.94;5066703;28;20182;-81
2023/08/19 06:53:33;;;;;;;4.90;3.70;;;;;;;27.01;46.78;97159.72;5066718;28;20223;-75
2023/08/19 06:56:27;;;;;;;6.63;3.67;;;;;;;27.07;45.47;97162.53;5063368;28;20189;-75
2023/08/19 06:59:03;;;;;;;3.10;2.80;;;;;;;26.76;45.12;97107.59;5065382;28;20193;-81
2023/08/19 07:01:31;;;;;;;4.40;3.47;;;;;;;27.22;44.98;97155.50;5066888;28;20199;-76
2023/08/19 07:04:00;;;;;;;3.60;3.00;;;;;;;27.51;44.07;97164.78;5062441;28;20216;-77
2023/08/19 07:06:31;;;;;;;4.00;3.13;;;;;;;27.34;43.68;97140.06;5066512;28;20208;-77
2023/08/19 07:09:05;;;;;;;129.93;15.67;;;;;;;27.57;44.41;97158.75;5063210;28;20185;-76
2023/08/19 07:11:34;;;;;;;8.57;3.90;;;;;;;27.52;43.14;97137.97;5061989;28;20429;-78
2023/08/19 07:14:02;;;;;;;4.40;3.60;;;;;;;27.52;43.04;97130.00;5048671;28;20232;-78
2023/08/19 07:16:33;;;;;;;5.40;3.30;;;;;;;27.71;43.29;97142.06;5065882;28;20186;-78
2023/08/19 07:19:10;;;;;;;4.03;3.43;;;;;;;27.53;43.40;97133.50;5067170;28;20190;-78
2023/08/19 07:21:40;;;;;;;4.70;3.03;;;;;;;27.17;45.32;97143.72;5064696;28;20306;-82
2023/08/19 07:24:09;;;;;;;5.57;3.00;;;;;;;26.69;46.09;97128.66;5065794;28;20224;-78
2023/08/19 07:26:37;;;;;;;3.20;2.90;;;;;;;26.51;45.54;97126.19;5064961;28;20571;-77
2023/08/19 07:29:04;;;;;;;5.50;3.60;;;;;;;26.74;44.69;97139.66;5067083;28;20197;-82
2023/08/19 07:31:32;;;;;;;5.60;3.73;;;;;;;26.90;44.31;97136.97;5066988;28;20181;-84
2023/08/19 07:33:59;;;;;;;4.47;2.93;;;;;;;27.10;44.77;97159.53;5066315;28;20211;-78
2023/08/19 07:36:27;;;;;;;5.13;2.87;;;;;;;26.99;45.06;97151.91;5064375;28;20232;-77
2023/08/19 07:38:55;;;;;;;4.33;2.77;;;;;;;26.98;44.42;97152.91;5065733;28;20196;-76
2023/08/19 07:41:23;;;;;;;4.07;3.23;;;;;;;27.38;43.84;97186.59;5066322;28;20213;-78
2023/08/19 07:43:50;;;;;;;7.17;3.70;;;;;;;27.50;43.68;97189.72;5065452;28;20221;-76
2023/08/19 07:46:19;;;;;;;6.17;4.10;;;;;;;27.65;41.75;97159.56;5064917;28;20388;-78
2023/08/19 07:48:46;;;;;;;4.27;3.00;;;;;;;27.59;42.70;97180.72;5064274;28;20221;-77
2023/08/19 07:51:13;;;;;;;4.80;4.03;;;;;;;27.80;42.51;97184.44;5064943;28;20580;-77
2023/08/19 07:53:41;;;;;;;3.87;3.47;;;;;;;27.98;41.56;97177.06;5065963;28;20727;-76
2023/08/19 07:56:08;;;;;;;4.93;3.37;;;;;;;28.26;42.78;97182.72;5066024;28;20200;-77
2023/08/19 07:58:36;;;;;;;3.43;3.13;;;;;;;28.09;41.04;97163.34;5066135;28;20189;-76
2023/08/19 08:01:03;;;;;;;5.80;3.23;;;;;;;28.34;41.91;97182.66;5048086;28;20564;-78
2023/08/19 08:03:32;;;;;;;3.90;2.90;;;;;;;28.19;41.77;97179.13;5066287;28;20217;-78
2023/08/19 08:05:59;;;;;;;4.60;2.87;;;;;;;27.93;42.69;97151.91;5058304;28;20219;-77
2023/08/19 08:08:27;;;;;;;4.80;3.27;;;;;;;27.31;43.09;97081.84;5047514;28;20736;-78
2023/08/19 08:10:54;;;;;;;3.50;2.87;;;;;;;27.14;43.76;97134.25;5069465;28;20532;-77
2023/08/19 08:13:21;;;;;;;12.47;6.47;;;;;;;27.20;44.13;97144.19;5068789;28;20205;-77
2023/08/19 08:15:48;;;;;;;9.20;4.00;;;;;;;27.34;43.28;97148.88;5069484;28;20190;-78
2023/08/19 08:18:18;;;;;;;6.47;4.17;;;;;;;27.44;42.93;97150.47;5067578;28;20262;-77
2023/08/19 08:20:45;;;;;;;4.00;3.40;;;;;;;27.46;42.55;97161.78;5068355;28;20626;-75
2023/08/19 08:23:13;;;;;;;5.30;3.17;;;;;;;27.47;42.35;97152.81;5068218;28;20231;-81
2023/08/19 08:25:40;;;;;;;7.00;3.97;;;;;;;27.42;42.33;97121.41;5067354;28;20197;-81
2023/08/19 08:28:08;;;;;;;4.97;4.10;;;;;;;27.57;42.12;97118.84;5067430;28;20289;-80
2023/08/19 08:30:35;;;;;;;6.63;4.67;;;;;;;27.68;42.54;97134.41;5068592;28;20654;-79
2023/08/19 08:33:04;;;;;;;5.03;3.53;;;;;;;27.73;41.68;97124.91;5067872;28;20623;-78
2023/08/19 08:35:32;;;;;;;4.93;3.33;;;;;;;27.86;42.00;97143.00;5068778;28;20186;-77
2023/08/19 08:37:59;;;;;;;4.30;2.93;;;;;;;27.92;41.75;97155.59;5068742;28;20221;-76
2023/08/19 08:40:30;;;;;;;9.50;3.57;;;;;;;27.79;41.80;97132.19;5072160;28;20197;-81
2023/08/19 08:42:58;;;;;;;7.10;3.30;;;;;;;27.89;41.87;97124.81;5074631;28;20330;-76
2023/08/19 08:45:27;;;;;;;4.53;3.37;;;;;;;27.86;42.92;97141.13;5067943;28;20212;-77
2023/08/19 08:47:54;;;;;;;13.60;5.40;;;;;;;28.06;41.96;97134.41;5070081;28;20293;-81
2023/08/19 08:50:21;;;;;;;15.13;4.47;;;;;;;28.32;41.32;97147.38;5069573;28;20454;-79
2023/08/19 08:52:50;;;;;;;10.73;6.93;;;;;;;28.44;40.58;97118.50;5068617;28;20558;-78
2023/08/19 08:55:17;;;;;;;10.77;6.03;;;;;;;28.63;40.90;97153.50;5068099;28;20228;-78
2023/08/19 08:57:45;;;;;;;9.00;4.53;;;;;;;28.68;41.31;97148.47;5068348;28;20803;-76
2023/08/19 09:00:14;;;;;;;9.23;4.47;;;;;;;28.90;42.03;97152.91;5068986;28;20196;-74
2023/08/19 09:02:43;;;;;;;8.60;4.77;;;;;;;28.93;39.75;97165.88;5067279;28;20203;-76
2023/08/19 09:05:12;;;;;;;6.33;3.33;;;;;;;29.07;40.41;97174.94;5067766;28;20235;-78
2023/08/19 09:07:41;;;;;;;3.97;3.03;;;;;;;29.08;39.86;97165.09;5068678;28;20193;-77
2023/08/19 09:10:14;;;;;;;6.87;3.27;;;;;;;29.11;40.78;97159.38;5066893;28;20188;-75
2023/08/19 09:12:47;;;;;;;4.27;3.50;;;;;;;29.38;38.95;97169.47;5068901;28;20279;-78
2023/08/19 09:15:17;;;;;;;4.43;3.03;;;;;;;29.46;39.48;97156.88;5068115;28;20600;-76
2023/08/19 09:17:44;;;;;;;4.37;3.53;;;;;;;29.77;38.58;97166.53;5061976;28;20220;-76
2023/08/19 09:20:13;;;;;;;4.37;3.43;;;;;;;29.59;38.19;97158.88;5056847;28;20574;-79
2023/08/19 09:22:42;;;;;;;5.57;3.10;;;;;;;29.32;39.24;97168.38;5068913;28;20606;-80
2023/08/19 09:25:16;;;;;;;4.83;3.50;;;;;;;29.26;38.31;97152.25;5067586;28;21004;-83
2023/08/19 09:27:46;;;;;;;3.33;3.03;;;;;;;29.29;38.75;97151.88;5068537;28;20188;-86
2023/08/19 09:30:16;;;;;;;5.63;3.20;;;;;;;29.62;39.07;97153.16;5068955;28;20600;-77
2023/08/19 09:32:45;;;;;;;5.93;3.73;;;;;;;29.49;39.52;97153.00;5071720;28;20290;-79
2023/08/19 09:35:13;;;;;;;8.13;3.70;;;;;;;29.77;38.32;97154.00;5069450;28;20253;-77
2023/08/19 09:37:41;;;;;;;5.07;3.90;;;;;;;29.95;38.75;97159.78;5070716;28;20229;-77
2023/08/19 09:40:15;;;;;;;26.13;20.03;;;;;;;29.89;38.50;97154.34;5101897;28;20223;-77
2023/08/19 09:42:46;;;;;;;5.20;3.37;;;;;;;30.00;38.10;97157.38;5069166;28;20612;-78
2023/08/19 09:45:25;;;;;;;6.50;3.87;;;;;;;29.81;38.09;97160.63;5050206;28;20189;-78
2023/08/19 09:47:53;;;;;;;5.07;3.53;;;;;;;29.73;38.41;97150.06;5068301;28;20197;-83
2023/08/19 09:50:23;;;;;;;4.33;2.90;;;;;;;29.79;38.15;97160.00;5067152;28;20832;-76
2023/08/19 09:52:55;;;;;;;3.53;2.87;;;;;;;29.48;38.66;97127.31;5068044;28;20687;-80
2023/08/19 09:55:27;;;;;;;5.93;3.50;;;;;;;29.73;38.70;97150.91;5063923;28;20284;-78
2023/08/19 09:57:54;;;;;;;4.63;2.90;;;;;;;29.88;38.81;97158.03;5049407;28;20197;-77
2023/08/19 10:00:23;;;;;;;3.60;3.30;;;;;;;29.43;39.02;97151.06;5066457;28;20196;-75
2023/08/19 10:02:50;;;;;;;3.17;2.87;;;;;;;29.27;39.25;97156.56;5061415;28;20197;-78
2023/08/19 10:05:18;;;;;;;3.40;3.10;;;;;;;29.13;40.17;97154.69;5063144;28;20225;-79
2023/08/19 10:07:52;;;;;;;5.87;2.80;;;;;;;28.49;39.25;97034.31;5046985;28;20264;-81
2023/08/19 10:10:24;;;;;;;5.53;3.03;;;;;;;29.21;39.28;97157.31;5048665;28;20204;-76
2023/08/19 10:12:53;;;;;;;5.33;2.97;;;;;;;29.39;39.71;97149.75;5046398;28;20727;-79
2023/08/19 10:15:22;;;;;;;5.73;3.20;;;;;;;29.52;39.77;97149.94;5048004;28;20213;-79
2023/08/19 10:17:57;;;;;;;3.37;3.07;;;;;;;29.49;38.81;97153.00;5047671;28;20209;-79
2023/08/19 10:20:28;;;;;;;3.93;3.30;;;;;;;29.46;38.80;97132.84;5046013;28;20200;-78
2023/08/19 10:22:59;;;;;;;4.63;3.17;;;;;;;29.74;38.10;97133.00;5080436;28;20809;-78
2023/08/19 10:25:28;;;;;;;3.80;2.90;;;;;;;29.83;38.04;97139.91;5045735;28;20686;-82
2023/08/19 10:28:22;;;;;;;3.43;3.10;;;;;;;30.25;37.88;97150.66;5047580;28;20619;-77
2023/08/19 10:31:10;;;;;;;5.40;3.90;;;;;;;30.40;37.90;97156.81;5047143;28;20193;-77
2023/08/19 10:33:43;;;;;;;3.60;3.30;;;;;;;30.48;37.22;97151.31;5047070;28;20740;-77
2023/08/19 10:36:16;;;;;;;10.63;3.97;;;;;;;30.64;37.75;97141.41;5047043;28;20253;-79
2023/08/19 10:38:56;;;;;;;5.10;4.00;;;;;;;30.93;37.26;97157.31;5029653;28;20198;-79
2023/08/19 10:41:38;;;;;;;8.27;4.93;;;;;;;30.76;36.43;97129.97;5046116;28;20198;-85
2023/08/19 10:44:12;;;;;;;4.97;3.37;;;;;;;30.84;37.33;97129.84;5045608;28;20271;-82
2023/08/19 10:46:47;;;;;;;4.97;4.33;;;;;;;30.95;36.82;97131.19;5051477;28;20250;-81
2023/08/19 10:49:21;;;;;;;4.87;3.53;;;;;;;31.07;36.36;97130.47;5066053;28;20192;-75
2023/08/19 10:51:57;;;;;;;7.80;3.80;;;;;;;31.18;36.30;97139.78;5066617;28;20689;-82
2023/08/19 10:54:26;;;;;;;3.67;3.10;;;;;;;31.07;37.14;97143.84;5068054;28;20193;-81
2023/08/19 10:57:17;;;;;;;6.30;4.17;;;;;;;31.10;36.85;97139.91;5067789;28;20574;-76
2023/08/19 10:59:46;;;;;;;3.37;3.07;;;;;;;30.94;36.43;97135.72;5071011;28;20189;-78
2023/08/19 11:02:14;;;;;;;7.03;3.80;;;;;;;30.85;36.98;97134.19;5072891;28;20185;-81
2023/08/19 11:04:42;;;;;;;4.70;3.80;;;;;;;31.05;36.02;97110.25;5073235;28;20239;-78
2023/08/19 11:07:11;;;;;;;6.33;3.90;;;;;;;31.18;36.03;97096.97;5067040;28;20254;-82
2023/08/19 11:09:43;;;;;;;8.07;3.93;;;;;;;31.54;35.61;97126.22;5067165;28;20181;-78
2023/08/19 11:12:11;;;;;;;4.90;3.60;;;;;;;31.67;35.94;97129.81;5069447;28;20618;-84
2023/08/19 11:14:45;;;;;;;4.97;3.40;;;;;;;31.50;35.94;97120.44;5068241;28;20224;-78
2023/08/19 11:17:13;;;;;;;5.35;2.95;;;;;;;31.60;35.38;97123.56;5069190;28;20676;-81
2023/08/19 11:19:46;;;;;;;5.07;3.47;;;;;;;31.70;36.73;97107.13;5066905;28;20181;-78
2023/08/19 11:22:17;;;;;;;6.70;3.70;;;;;;;32.05;35.09;97117.59;5066343;28;20201;-80
2023/08/19 11:24:45;;;;;;;5.95;3.80;;;;;;;32.02;34.79;97107.28;5065728;28;20231;-84
2023/08/19 11:27:12;;;;;;;6.13;3.33;;;;;;;32.12;34.92;97114.94;5067107;28;20749;-81
2023/08/19 11:29:40;;;;;;;4.97;3.53;;;;;;;32.08;34.71;97108.31;5068344;28;20193;-80
2023/08/19 11:32:08;;;;;;;3.75;2.80;;;;;;;32.23;34.57;97119.72;5067380;28;20243;-80
2023/08/19 11:34:35;;;;;;;4.80;3.10;;;;;;;31.93;34.45;97108.50;5066827;28;20193;-79
2023/08/19 11:37:05;;;;;;;6.38;3.67;;;;;;;31.55;36.04;97101.09;5065240;28;20221;-81
2023/08/19 11:39:32;;;;;;;6.23;3.27;;;;;;;31.51;36.47;97092.63;5065102;28;20198;-80